sensor_id;sensor_type;location;lat;lon;timestamp;pressure;altitude;pressure_sealevel;temperature
75822;BMP180;64454;51.984;9.838;2023-05-10T00:01:35;99365.00;;;15.10
75822;BMP180;64454;51.984;9.838;2023-05-10T00:04:02;99365.00;;;15.00
75822;BMP180;64454;51.984;9.838;2023-05-10T00:06:30;99361.00;;;14.80
75822;BMP180;64454;51.984;9.838;2023-05-10T00:08:57;99360.00;;;14.60
75822;BMP180;64454;51.984;9.838;2023-05-10T00:11:24;99356.00;;;14.60
75822;BMP180;64454;51.984;9.838;2023-05-10T00:13:51;99356.00;;;14.40
75822;BMP180;64454;51.984;9.838;2023-05-10T00:16:18;99356.00;;;14.40
75822;BMP180;64454;51.984;9.838;2023-05-10T00:18:45;99355.00;;;14.10
75822;BMP180;64454;51.984;9.838;2023-05-10T00:21:12;99350.00;;;14.40
75822;BMP180;64454;51.984;9.838;2023-05-10T00:23:40;99355.00;;;14.30
75822;BMP180;64454;51.984;9.838;2023-05-10T00:26:07;99350.00;;;14.40
75822;BMP180;64454;51.984;9.838;2023-05-10T00:28:33;99345.00;;;14.60
75822;BMP180;64454;51.984;9.838;2023-05-10T00:31:00;99344.00;;;14.70
75822;BMP180;64454;51.984;9.838;2023-05-10T00:33:27;99346.00;;;14.50
75822;BMP180;64454;51.984;9.838;2023-05-10T00:35:54;99347.00;;;14.50
75822;BMP180;64454;51.984;9.838;2023-05-10T00:38:21;99351.00;;;14.50
75822;BMP180;64454;51.984;9.838;2023-05-10T00:40:49;99342.00;;;14.20
75822;BMP180;64454;51.984;9.838;2023-05-10T00:43:15;99345.00;;;14.40
75822;BMP180;64454;51.984;9.838;2023-05-10T00:45:43;99335.00;;;14.10
75822;BMP180;64454;51.984;9.838;2023-05-10T00:48:10;99337.00;;;14.00
75822;BMP180;64454;51.984;9.838;2023-05-10T00:50:37;99326.00;;;13.90
75822;BMP180;64454;51.984;9.838;2023-05-10T00:53:05;99339.00;;;14.00
75822;BMP180;64454;51.984;9.838;2023-05-10T00:55:32;99341.00;;;13.80
75822;BMP180;64454;51.984;9.838;2023-05-10T00:58:00;99335.00;;;14.00
75822;BMP180;64454;51.984;9.838;2023-05-10T01:00:28;99337.00;;;13.90
75822;BMP180;64454;51.984;9.838;2023-05-10T01:02:55;99340.00;;;14.00
75822;BMP180;64454;51.984;9.838;2023-05-10T01:05:22;99337.00;;;14.30
75822;BMP180;64454;51.984;9.838;2023-05-10T01:07:49;99332.00;;;14.30
75822;BMP180;64454;51.984;9.838;2023-05-10T01:10:16;99332.00;;;14.50
75822;BMP180;64454;51.984;9.838;2023-05-10T01:12:46;99328.00;;;14.40
75822;BMP180;64454;51.984;9.838;2023-05-10T01:15:16;99324.00;;;14.60
75822;BMP180;64454;51.984;9.838;2023-05-10T01:17:46;99329.00;;;14.60
75822;BMP180;64454;51.984;9.838;2023-05-10T01:20:14;99327.00;;;14.50
75822;BMP180;64454;51.984;9.838;2023-05-10T01:23:09;99335.00;;;14.50
75822;BMP180;64454;51.984;9.838;2023-05-10T01:26:13;99330.00;;;14.60
75822;BMP180;64454;51.984;9.838;2023-05-10T01:29:24;99329.00;;;14.80
75822;BMP180;64454;51.984;9.838;2023-05-10T01:32:21;99327.00;;;14.80
75822;BMP180;64454;51.984;9.838;2023-05-10T01:35:00;99329.00;;;14.70
75822;BMP180;64454;51.984;9.838;2023-05-10T01:37:39;99319.00;;;14.80
75822;BMP180;64454;51.984;9.838;2023-05-10T01:40:17;99321.00;;;14.80
75822;BMP180;64454;51.984;9.838;2023-05-10T01:42:50;99318.00;;;14.80
75822;BMP180;64454;51.984;9.838;2023-05-10T01:45:24;99324.00;;;15.00
75822;BMP180;64454;51.984;9.838;2023-05-10T01:48:05;99316.00;;;14.90
75822;BMP180;64454;51.984;9.838;2023-05-10T01:50:36;99319.00;;;14.80
75822;BMP180;64454;51.984;9.838;2023-05-10T01:53:07;99320.00;;;15.00
75822;BMP180;64454;51.984;9.838;2023-05-10T01:55:43;99314.00;;;14.90
75822;BMP180;64454;51.984;9.838;2023-05-10T01:58:17;99319.00;;;14.90
75822;BMP180;64454;51.984;9.838;2023-05-10T02:00:46;99319.00;;;15.00
75822;BMP180;64454;51.984;9.838;2023-05-10T02:03:18;99316.00;;;15.20
75822;BMP180;64454;51.984;9.838;2023-05-10T02:05:49;99319.00;;;15.10
75822;BMP180;64454;51.984;9.838;2023-05-10T02:08:18;99318.00;;;15.20
75822;BMP180;64454;51.984;9.838;2023-05-10T02:10:49;99321.00;;;15.10
75822;BMP180;64454;51.984;9.838;2023-05-10T02:13:18;99318.00;;;15.30
75822;BMP180;64454;51.984;9.838;2023-05-10T02:15:48;99324.00;;;15.30
75822;BMP180;64454;51.984;9.838;2023-05-10T02:18:17;99324.00;;;15.40
75822;BMP180;64454;51.984;9.838;2023-05-10T02:20:46;99325.00;;;15.00
75822;BMP180;64454;51.984;9.838;2023-05-10T02:23:16;99326.00;;;15.20
75822;BMP180;64454;51.984;9.838;2023-05-10T02:25:46;99326.00;;;15.30
75822;BMP180;64454;51.984;9.838;2023-05-10T02:28:15;99330.00;;;15.20
75822;BMP180;64454;51.984;9.838;2023-05-10T02:30:44;99327.00;;;15.10
75822;BMP180;64454;51.984;9.838;2023-05-10T02:33:11;99309.00;;;15.10
75822;BMP180;64454;51.984;9.838;2023-05-10T02:35:40;99324.00;;;15.00
75822;BMP180;64454;51.984;9.838;2023-05-10T02:38:09;99326.00;;;15.00
75822;BMP180;64454;51.984;9.838;2023-05-10T02:40:38;99326.00;;;14.80
75822;BMP180;64454;51.984;9.838;2023-05-10T02:43:12;99326.00;;;14.90
75822;BMP180;64454;51.984;9.838;2023-05-10T02:45:41;99325.00;;;14.70
75822;BMP180;64454;51.984;9.838;2023-05-10T02:48:09;99321.00;;;14.80
75822;BMP180;64454;51.984;9.838;2023-05-10T02:50:39;99322.00;;;14.90
75822;BMP180;64454;51.984;9.838;2023-05-10T02:53:15;99325.00;;;15.00
75822;BMP180;64454;51.984;9.838;2023-05-10T02:55:49;99325.00;;;14.80
75822;BMP180;64454;51.984;9.838;2023-05-10T02:58:18;99318.00;;;15.00
75822;BMP180;64454;51.984;9.838;2023-05-10T03:00:46;99318.00;;;15.00
75822;BMP180;64454;51.984;9.838;2023-05-10T03:03:13;99309.00;;;15.00
75822;BMP180;64454;51.984;9.838;2023-05-10T03:05:41;99313.00;;;15.00
75822;BMP180;64454;51.984;9.838;2023-05-10T03:08:08;99320.00;;;15.00
75822;BMP180;64454;51.984;9.838;2023-05-10T03:10:58;99308.00;;;14.90
75822;BMP180;64454;51.984;9.838;2023-05-10T03:13:39;99319.00;;;14.90
75822;BMP180;64454;51.984;9.838;2023-05-10T03:16:12;99322.00;;;14.90
75822;BMP180;64454;51.984;9.838;2023-05-10T03:18:44;99318.00;;;14.80
75822;BMP180;64454;51.984;9.838;2023-05-10T03:21:18;99311.00;;;14.90
75822;BMP180;64454;51.984;9.838;2023-05-10T03:23:56;99313.00;;;14.80
75822;BMP180;64454;51.984;9.838;2023-05-10T03:26:27;99313.00;;;14.80
75822;BMP180;64454;51.984;9.838;2023-05-10T03:28:57;99307.00;;;15.00
75822;BMP180;64454;51.984;9.838;2023-05-10T03:31:25;99311.00;;;14.90
75822;BMP180;64454;51.984;9.838;2023-05-10T03:33:52;99320.00;;;14.70
75822;BMP180;64454;51.984;9.838;2023-05-10T03:36:20;99323.00;;;14.40
75822;BMP180;64454;51.984;9.838;2023-05-10T03:38:47;99316.00;;;14.70
75822;BMP180;64454;51.984;9.838;2023-05-10T03:41:14;99319.00;;;14.90
75822;BMP180;64454;51.984;9.838;2023-05-10T03:43:41;99329.00;;;15.00
75822;BMP180;64454;51.984;9.838;2023-05-10T03:46:08;99322.00;;;14.60
75822;BMP180;64454;51.984;9.838;2023-05-10T03:48:35;99326.00;;;14.80
75822;BMP180;64454;51.984;9.838;2023-05-10T03:51:02;99318.00;;;14.80
75822;BMP180;64454;51.984;9.838;2023-05-10T03:53:32;99317.00;;;14.70
75822;BMP180;64454;51.984;9.838;2023-05-10T03:55:58;99314.00;;;14.90
75822;BMP180;64454;51.984;9.838;2023-05-10T03:58:25;99322.00;;;14.50
75822;BMP180;64454;51.984;9.838;2023-05-10T04:00:53;99326.00;;;14.30
75822;BMP180;64454;51.984;9.838;2023-05-10T04:03:20;99330.00;;;13.90
75822;BMP180;64454;51.984;9.838;2023-05-10T04:05:48;99332.00;;;14.20
75822;BMP180;64454;51.984;9.838;2023-05-10T04:08:15;99321.00;;;14.20
75822;BMP180;64454;51.984;9.838;2023-05-10T04:10:43;99328.00;;;14.30
75822;BMP180;64454;51.984;9.838;2023-05-10T04:13:10;99323.00;;;14.20
75822;BMP180;64454;51.984;9.838;2023-05-10T04:15:37;99328.00;;;14.10
75822;BMP180;64454;51.984;9.838;2023-05-10T04:18:04;99342.00;;;14.00
75822;BMP180;64454;51.984;9.838;2023-05-10T04:20:32;99333.00;;;13.90
75822;BMP180;64454;51.984;9.838;2023-05-10T04:22:59;99329.00;;;13.60
75822;BMP180;64454;51.984;9.838;2023-05-10T04:25:26;99344.00;;;13.30
75822;BMP180;64454;51.984;9.838;2023-05-10T04:27:54;99335.00;;;12.90
75822;BMP180;64454;51.984;9.838;2023-05-10T04:30:21;99335.00;;;12.80
75822;BMP180;64454;51.984;9.838;2023-05-10T04:32:48;99336.00;;;13.00
75822;BMP180;64454;51.984;9.838;2023-05-10T04:35:15;99339.00;;;12.90
75822;BMP180;64454;51.984;9.838;2023-05-10T04:37:41;99342.00;;;13.10
75822;BMP180;64454;51.984;9.838;2023-05-10T04:40:10;99351.00;;;13.00
75822;BMP180;64454;51.984;9.838;2023-05-10T04:42:36;99352.00;;;13.00
75822;BMP180;64454;51.984;9.838;2023-05-10T04:45:06;99342.00;;;12.70
75822;BMP180;64454;51.984;9.838;2023-05-10T04:47:35;99351.00;;;12.80
75822;BMP180;64454;51.984;9.838;2023-05-10T04:50:03;99349.00;;;13.00
75822;BMP180;64454;51.984;9.838;2023-05-10T04:52:30;99362.00;;;12.70
75822;BMP180;64454;51.984;9.838;2023-05-10T04:54:56;99372.00;;;12.90
75822;BMP180;64454;51.984;9.838;2023-05-10T04:57:23;99375.00;;;13.10
75822;BMP180;64454;51.984;9.838;2023-05-10T04:59:50;99382.00;;;12.80
75822;BMP180;64454;51.984;9.838;2023-05-10T05:02:18;99386.00;;;12.40
75822;BMP180;64454;51.984;9.838;2023-05-10T05:04:45;99388.00;;;12.40
75822;BMP180;64454;51.984;9.838;2023-05-10T05:07:12;99386.00;;;12.40
75822;BMP180;64454;51.984;9.838;2023-05-10T05:09:39;99379.00;;;12.20
75822;BMP180;64454;51.984;9.838;2023-05-10T05:12:06;99380.00;;;12.20
75822;BMP180;64454;51.984;9.838;2023-05-10T05:14:32;99380.00;;;12.10
75822;BMP180;64454;51.984;9.838;2023-05-10T05:16:59;99388.00;;;12.10
75822;BMP180;64454;51.984;9.838;2023-05-10T05:19:27;99384.00;;;12.20
75822;BMP180;64454;51.984;9.838;2023-05-10T05:21:54;99393.00;;;12.10
75822;BMP180;64454;51.984;9.838;2023-05-10T05:24:21;99388.00;;;12.00
75822;BMP180;64454;51.984;9.838;2023-05-10T05:26:48;99379.00;;;12.10
75822;BMP180;64454;51.984;9.838;2023-05-10T05:29:17;99383.00;;;12.20
75822;BMP180;64454;51.984;9.838;2023-05-10T05:31:45;99381.00;;;12.20
75822;BMP180;64454;51.984;9.838;2023-05-10T05:34:11;99387.00;;;12.40
75822;BMP180;64454;51.984;9.838;2023-05-10T05:36:40;99386.00;;;12.60
75822;BMP180;64454;51.984;9.838;2023-05-10T05:39:07;99397.00;;;12.80
75822;BMP180;64454;51.984;9.838;2023-05-10T05:41:34;99389.00;;;12.50
75822;BMP180;64454;51.984;9.838;2023-05-10T05:44:01;99396.00;;;12.40
75822;BMP180;64454;51.984;9.838;2023-05-10T05:46:27;99399.00;;;12.80
75822;BMP180;64454;51.984;9.838;2023-05-10T05:48:54;99409.00;;;12.90
75822;BMP180;64454;51.984;9.838;2023-05-10T05:51:21;99411.00;;;12.60
75822;BMP180;64454;51.984;9.838;2023-05-10T05:53:49;99417.00;;;12.70
75822;BMP180;64454;51.984;9.838;2023-05-10T05:56:16;99415.00;;;12.70
75822;BMP180;64454;51.984;9.838;2023-05-10T05:58:49;99418.00;;;12.90
75822;BMP180;64454;51.984;9.838;2023-05-10T06:01:16;99426.00;;;13.10
75822;BMP180;64454;51.984;9.838;2023-05-10T06:03:43;99428.00;;;12.70
75822;BMP180;64454;51.984;9.838;2023-05-10T06:06:10;99428.00;;;12.80
75822;BMP180;64454;51.984;9.838;2023-05-10T06:08:36;99430.00;;;13.00
75822;BMP180;64454;51.984;9.838;2023-05-10T06:11:04;99439.00;;;13.10
75822;BMP180;64454;51.984;9.838;2023-05-10T06:13:31;99441.00;;;13.00
75822;BMP180;64454;51.984;9.838;2023-05-10T06:16:01;99439.00;;;13.20
75822;BMP180;64454;51.984;9.838;2023-05-10T06:18:28;99451.00;;;13.00
75822;BMP180;64454;51.984;9.838;2023-05-10T06:20:55;99448.00;;;13.00
75822;BMP180;64454;51.984;9.838;2023-05-10T06:23:23;99445.00;;;13.00
75822;BMP180;64454;51.984;9.838;2023-05-10T06:25:51;99446.00;;;12.90
75822;BMP180;64454;51.984;9.838;2023-05-10T06:28:19;99454.00;;;13.00
75822;BMP180;64454;51.984;9.838;2023-05-10T06:30:46;99454.00;;;12.80
75822;BMP180;64454;51.984;9.838;2023-05-10T06:33:13;99452.00;;;12.80
75822;BMP180;64454;51.984;9.838;2023-05-10T06:35:41;99458.00;;;12.90
75822;BMP180;64454;51.984;9.838;2023-05-10T06:38:08;99463.00;;;13.00
75822;BMP180;64454;51.984;9.838;2023-05-10T06:40:35;99462.00;;;12.90
75822;BMP180;64454;51.984;9.838;2023-05-10T06:43:01;99469.00;;;13.20
75822;BMP180;64454;51.984;9.838;2023-05-10T06:45:30;99462.00;;;13.30
75822;BMP180;64454;51.984;9.838;2023-05-10T06:47:56;99466.00;;;13.30
75822;BMP180;64454;51.984;9.838;2023-05-10T06:50:23;99466.00;;;13.30
75822;BMP180;64454;51.984;9.838;2023-05-10T06:52:50;99470.00;;;13.20
75822;BMP180;64454;51.984;9.838;2023-05-10T06:55:17;99470.00;;;13.30
75822;BMP180;64454;51.984;9.838;2023-05-10T06:57:44;99471.00;;;13.30
75822;BMP180;64454;51.984;9.838;2023-05-10T07:00:11;99474.00;;;13.10
75822;BMP180;64454;51.984;9.838;2023-05-10T07:02:39;99480.00;;;13.40
75822;BMP180;64454;51.984;9.838;2023-05-10T07:05:07;99478.00;;;13.40
75822;BMP180;64454;51.984;9.838;2023-05-10T07:07:34;99494.00;;;13.40
75822;BMP180;64454;51.984;9.838;2023-05-10T07:10:01;99485.00;;;13.10
75822;BMP180;64454;51.984;9.838;2023-05-10T07:12:28;99497.00;;;13.00
75822;BMP180;64454;51.984;9.838;2023-05-10T07:14:55;99497.00;;;13.10
75822;BMP180;64454;51.984;9.838;2023-05-10T07:17:22;99493.00;;;13.10
75822;BMP180;64454;51.984;9.838;2023-05-10T07:19:50;99497.00;;;13.50
75822;BMP180;64454;51.984;9.838;2023-05-10T07:22:16;99501.00;;;13.30
75822;BMP180;64454;51.984;9.838;2023-05-10T07:24:44;99503.00;;;13.40
75822;BMP180;64454;51.984;9.838;2023-05-10T07:27:10;99507.00;;;13.40
75822;BMP180;64454;51.984;9.838;2023-05-10T07:29:38;99503.00;;;13.20
75822;BMP180;64454;51.984;9.838;2023-05-10T07:32:06;99507.00;;;13.60
75822;BMP180;64454;51.984;9.838;2023-05-10T07:34:32;99515.00;;;13.70
75822;BMP180;64454;51.984;9.838;2023-05-10T07:37:01;99515.00;;;13.30
75822;BMP180;64454;51.984;9.838;2023-05-10T07:39:28;99517.00;;;13.60
75822;BMP180;64454;51.984;9.838;2023-05-10T07:41:55;99521.00;;;13.80
75822;BMP180;64454;51.984;9.838;2023-05-10T07:44:22;99524.00;;;13.90
75822;BMP180;64454;51.984;9.838;2023-05-10T07:46:49;99518.00;;;13.70
75822;BMP180;64454;51.984;9.838;2023-05-10T07:49:17;99523.00;;;14.10
75822;BMP180;64454;51.984;9.838;2023-05-10T07:51:45;99518.00;;;14.20
75822;BMP180;64454;51.984;9.838;2023-05-10T07:54:14;99518.00;;;14.50
75822;BMP180;64454;51.984;9.838;2023-05-10T07:56:42;99523.00;;;14.60
75822;BMP180;64454;51.984;9.838;2023-05-10T07:59:17;99528.00;;;14.70
75822;BMP180;64454;51.984;9.838;2023-05-10T08:01:45;99532.00;;;14.50
75822;BMP180;64454;51.984;9.838;2023-05-10T08:04:12;99543.00;;;14.30
75822;BMP180;64454;51.984;9.838;2023-05-10T08:06:39;99538.00;;;14.40
75822;BMP180;64454;51.984;9.838;2023-05-10T08:09:06;99547.00;;;14.40
75822;BMP180;64454;51.984;9.838;2023-05-10T08:11:34;99550.00;;;14.30
75822;BMP180;64454;51.984;9.838;2023-05-10T08:14:01;99549.00;;;14.60
75822;BMP180;64454;51.984;9.838;2023-05-10T08:16:28;99552.00;;;14.90
75822;BMP180;64454;51.984;9.838;2023-05-10T08:18:55;99563.00;;;15.20
75822;BMP180;64454;51.984;9.838;2023-05-10T08:21:22;99562.00;;;15.00
75822;BMP180;64454;51.984;9.838;2023-05-10T08:23:48;99557.00;;;14.80
75822;BMP180;64454;51.984;9.838;2023-05-10T08:26:15;99566.00;;;14.90
75822;BMP180;64454;51.984;9.838;2023-05-10T08:28:43;99570.00;;;15.30
75822;BMP180;64454;51.984;9.838;2023-05-10T08:31:10;99572.00;;;15.30
75822;BMP180;64454;51.984;9.838;2023-05-10T08:33:37;99569.00;;;15.20
75822;BMP180;64454;51.984;9.838;2023-05-10T08:36:04;99573.00;;;15.20
75822;BMP180;64454;51.984;9.838;2023-05-10T08:38:31;99573.00;;;15.20
75822;BMP180;64454;51.984;9.838;2023-05-10T08:40:58;99573.00;;;15.20
75822;BMP180;64454;51.984;9.838;2023-05-10T08:43:27;99580.00;;;15.30
75822;BMP180;64454;51.984;9.838;2023-05-10T08:46:00;99581.00;;;15.30
75822;BMP180;64454;51.984;9.838;2023-05-10T08:48:29;99587.00;;;15.40
75822;BMP180;64454;51.984;9.838;2023-05-10T08:50:58;99591.00;;;15.10
75822;BMP180;64454;51.984;9.838;2023-05-10T08:53:30;99598.00;;;15.30
75822;BMP180;64454;51.984;9.838;2023-05-10T08:55:57;99601.00;;;15.40
75822;BMP180;64454;51.984;9.838;2023-05-10T08:58:25;99603.00;;;15.60
75822;BMP180;64454;51.984;9.838;2023-05-10T09:00:52;99599.00;;;15.60
75822;BMP180;64454;51.984;9.838;2023-05-10T09:03:20;99607.00;;;15.70
75822;BMP180;64454;51.984;9.838;2023-05-10T09:05:48;99609.00;;;15.70
75822;BMP180;64454;51.984;9.838;2023-05-10T09:08:15;99618.00;;;15.90
75822;BMP180;64454;51.984;9.838;2023-05-10T09:10:44;99620.00;;;15.80
75822;BMP180;64454;51.984;9.838;2023-05-10T09:13:14;99626.00;;;15.80
75822;BMP180;64454;51.984;9.838;2023-05-10T09:15:41;99618.00;;;15.90
75822;BMP180;64454;51.984;9.838;2023-05-10T09:18:08;99622.00;;;15.80
75822;BMP180;64454;51.984;9.838;2023-05-10T09:20:36;99626.00;;;15.90
75822;BMP180;64454;51.984;9.838;2023-05-10T09:23:03;99621.00;;;16.20
75822;BMP180;64454;51.984;9.838;2023-05-10T09:25:30;99616.00;;;16.10
75822;BMP180;64454;51.984;9.838;2023-05-10T09:27:59;99618.00;;;16.20
75822;BMP180;64454;51.984;9.838;2023-05-10T09:30:28;99630.00;;;16.40
75822;BMP180;64454;51.984;9.838;2023-05-10T09:32:56;99642.00;;;16.70
75822;BMP180;64454;51.984;9.838;2023-05-10T09:35:26;99639.00;;;16.50
75822;BMP180;64454;51.984;9.838;2023-05-10T09:37:59;99652.00;;;16.60
75822;BMP180;64454;51.984;9.838;2023-05-10T09:40:27;99647.00;;;16.40
75822;BMP180;64454;51.984;9.838;2023-05-10T09:42:57;99644.00;;;16.40
75822;BMP180;64454;51.984;9.838;2023-05-10T09:45:26;99646.00;;;16.80
75822;BMP180;64454;51.984;9.838;2023-05-10T09:47:54;99653.00;;;16.70
75822;BMP180;64454;51.984;9.838;2023-05-10T09:50:22;99666.00;;;16.70
75822;BMP180;64454;51.984;9.838;2023-05-10T09:52:51;99657.00;;;16.40
75822;BMP180;64454;51.984;9.838;2023-05-10T09:55:22;99662.00;;;16.50
75822;BMP180;64454;51.984;9.838;2023-05-10T09:57:59;99658.00;;;16.50
75822;BMP180;64454;51.984;9.838;2023-05-10T10:00:27;99655.00;;;16.80
75822;BMP180;64454;51.984;9.838;2023-05-10T10:02:56;99673.00;;;16.70
75822;BMP180;64454;51.984;9.838;2023-05-10T10:05:28;99651.00;;;16.60
75822;BMP180;64454;51.984;9.838;2023-05-10T10:07:57;99664.00;;;16.80
75822;BMP180;64454;51.984;9.838;2023-05-10T10:10:26;99669.00;;;17.10
75822;BMP180;64454;51.984;9.838;2023-05-10T10:12:53;99659.00;;;17.50
75822;BMP180;64454;51.984;9.838;2023-05-10T10:15:20;99658.00;;;17.80
75822;BMP180;64454;51.984;9.838;2023-05-10T10:17:49;99672.00;;;17.90
75822;BMP180;64454;51.984;9.838;2023-05-10T10:20:16;99664.00;;;18.00
75822;BMP180;64454;51.984;9.838;2023-05-10T10:22:43;99672.00;;;18.20
75822;BMP180;64454;51.984;9.838;2023-05-10T10:25:12;99671.00;;;17.50
75822;BMP180;64454;51.984;9.838;2023-05-10T10:27:52;99679.00;;;17.60
75822;BMP180;64454;51.984;9.838;2023-05-10T10:30:29;99679.00;;;17.40
75822;BMP180;64454;51.984;9.838;2023-05-10T10:33:24;99681.00;;;17.20
75822;BMP180;64454;51.984;9.838;2023-05-10T10:35:58;99678.00;;;17.20
75822;BMP180;64454;51.984;9.838;2023-05-10T10:38:25;99687.00;;;17.30
75822;BMP180;64454;51.984;9.838;2023-05-10T10:41:02;99680.00;;;17.30
75822;BMP180;64454;51.984;9.838;2023-05-10T10:43:30;99680.00;;;17.30
75822;BMP180;64454;51.984;9.838;2023-05-10T10:46:11;99675.00;;;17.30
75822;BMP180;64454;51.984;9.838;2023-05-10T10:48:39;99679.00;;;17.50
75822;BMP180;64454;51.984;9.838;2023-05-10T10:51:06;99679.00;;;18.00
75822;BMP180;64454;51.984;9.838;2023-05-10T10:53:33;99677.00;;;17.60
75822;BMP180;64454;51.984;9.838;2023-05-10T10:56:08;99672.00;;;17.90
75822;BMP180;64454;51.984;9.838;2023-05-10T10:58:37;99677.00;;;18.00
75822;BMP180;64454;51.984;9.838;2023-05-10T11:01:14;99673.00;;;18.20
75822;BMP180;64454;51.984;9.838;2023-05-10T11:06:40;99678.00;;;18.50
75822;BMP180;64454;51.984;9.838;2023-05-10T11:09:09;99670.00;;;19.00
75822;BMP180;64454;51.984;9.838;2023-05-10T11:11:49;99664.00;;;19.30
75822;BMP180;64454;51.984;9.838;2023-05-10T11:14:22;99679.00;;;20.00
75822;BMP180;64454;51.984;9.838;2023-05-10T11:16:49;99677.00;;;19.40
75822;BMP180;64454;51.984;9.838;2023-05-10T11:19:18;99674.00;;;18.90
75822;BMP180;64454;51.984;9.838;2023-05-10T11:21:49;99672.00;;;19.10
75822;BMP180;64454;51.984;9.838;2023-05-10T11:24:19;99675.00;;;18.70
75822;BMP180;64454;51.984;9.838;2023-05-10T11:26:50;99667.00;;;19.10
75822;BMP180;64454;51.984;9.838;2023-05-10T11:29:20;99667.00;;;19.50
75822;BMP180;64454;51.984;9.838;2023-05-10T11:31:49;99653.00;;;20.60
75822;BMP180;64454;51.984;9.838;2023-05-10T11:34:27;99646.00;;;20.60
75822;BMP180;64454;51.984;9.838;2023-05-10T11:36:56;99654.00;;;21.20
75822;BMP180;64454;51.984;9.838;2023-05-10T11:39:27;99660.00;;;20.40
75822;BMP180;64454;51.984;9.838;2023-05-10T11:41:54;99660.00;;;20.80
75822;BMP180;64454;51.984;9.838;2023-05-10T11:44:23;99666.00;;;19.40
75822;BMP180;64454;51.984;9.838;2023-05-10T11:46:51;99670.00;;;18.30
75822;BMP180;64454;51.984;9.838;2023-05-10T11:49:20;99674.00;;;18.40
75822;BMP180;64454;51.984;9.838;2023-05-10T11:51:49;99674.00;;;18.60
75822;BMP180;64454;51.984;9.838;2023-05-10T11:54:18;99682.00;;;18.30
75822;BMP180;64454;51.984;9.838;2023-05-10T11:56:46;99687.00;;;18.40
75822;BMP180;64454;51.984;9.838;2023-05-10T11:59:15;99684.00;;;18.10
75822;BMP180;64454;51.984;9.838;2023-05-10T12:01:44;99699.00;;;18.00
75822;BMP180;64454;51.984;9.838;2023-05-10T12:04:12;99723.00;;;17.80
75822;BMP180;64454;51.984;9.838;2023-05-10T12:06:40;99722.00;;;16.80
75822;BMP180;64454;51.984;9.838;2023-05-10T12:09:08;99727.00;;;16.30
75822;BMP180;64454;51.984;9.838;2023-05-10T12:11:39;99735.00;;;16.70
75822;BMP180;64454;51.984;9.838;2023-05-10T12:14:08;99743.00;;;16.60
75822;BMP180;64454;51.984;9.838;2023-05-10T12:16:36;99734.00;;;16.50
75822;BMP180;64454;51.984;9.838;2023-05-10T12:19:04;99728.00;;;16.20
75822;BMP180;64454;51.984;9.838;2023-05-10T12:21:32;99723.00;;;16.60
75822;BMP180;64454;51.984;9.838;2023-05-10T12:24:02;99728.00;;;17.00
75822;BMP180;64454;51.984;9.838;2023-05-10T12:26:29;99732.00;;;17.10
75822;BMP180;64454;51.984;9.838;2023-05-10T12:29:13;99734.00;;;17.70
75822;BMP180;64454;51.984;9.838;2023-05-10T12:31:51;99735.00;;;17.50
75822;BMP180;64454;51.984;9.838;2023-05-10T12:34:31;99725.00;;;17.30
75822;BMP180;64454;51.984;9.838;2023-05-10T12:36:59;99730.00;;;17.70
75822;BMP180;64454;51.984;9.838;2023-05-10T12:39:38;99726.00;;;18.50
75822;BMP180;64454;51.984;9.838;2023-05-10T12:42:05;99729.00;;;18.20
75822;BMP180;64454;51.984;9.838;2023-05-10T12:44:32;99730.00;;;18.60
75822;BMP180;64454;51.984;9.838;2023-05-10T12:46:59;99736.00;;;18.40
75822;BMP180;64454;51.984;9.838;2023-05-10T12:49:27;99730.00;;;18.10
75822;BMP180;64454;51.984;9.838;2023-05-10T12:51:54;99735.00;;;17.90
75822;BMP180;64454;51.984;9.838;2023-05-10T12:54:21;99737.00;;;18.60
75822;BMP180;64454;51.984;9.838;2023-05-10T12:56:47;99740.00;;;18.70
75822;BMP180;64454;51.984;9.838;2023-05-10T12:59:16;99744.00;;;18.90
75822;BMP180;64454;51.984;9.838;2023-05-10T13:01:44;99746.00;;;18.60
75822;BMP180;64454;51.984;9.838;2023-05-10T13:04:11;99744.00;;;18.60
75822;BMP180;64454;51.984;9.838;2023-05-10T13:06:39;99743.00;;;17.90
75822;BMP180;64454;51.984;9.838;2023-05-10T13:09:06;99742.00;;;18.40
75822;BMP180;64454;51.984;9.838;2023-05-10T13:11:33;99745.00;;;18.60
75822;BMP180;64454;51.984;9.838;2023-05-10T13:14:00;99739.00;;;17.90
75822;BMP180;64454;51.984;9.838;2023-05-10T13:16:28;99739.00;;;18.20
75822;BMP180;64454;51.984;9.838;2023-05-10T13:18:55;99737.00;;;18.00
75822;BMP180;64454;51.984;9.838;2023-05-10T13:21:22;99741.00;;;17.70
75822;BMP180;64454;51.984;9.838;2023-05-10T13:23:51;99735.00;;;18.30
75822;BMP180;64454;51.984;9.838;2023-05-10T13:26:18;99734.00;;;18.20
75822;BMP180;64454;51.984;9.838;2023-05-10T13:28:45;99731.00;;;18.40
75822;BMP180;64454;51.984;9.838;2023-05-10T13:31:12;99733.00;;;18.00
75822;BMP180;64454;51.984;9.838;2023-05-10T13:33:39;99733.00;;;17.70
75822;BMP180;64454;51.984;9.838;2023-05-10T13:36:06;99741.00;;;17.90
75822;BMP180;64454;51.984;9.838;2023-05-10T13:38:33;99732.00;;;17.80
75822;BMP180;64454;51.984;9.838;2023-05-10T13:41:01;99724.00;;;17.90
75822;BMP180;64454;51.984;9.838;2023-05-10T13:43:29;99726.00;;;17.90
75822;BMP180;64454;51.984;9.838;2023-05-10T13:45:56;99728.00;;;18.50
75822;BMP180;64454;51.984;9.838;2023-05-10T13:48:23;99731.00;;;18.00
75822;BMP180;64454;51.984;9.838;2023-05-10T13:50:49;99731.00;;;18.40
75822;BMP180;64454;51.984;9.838;2023-05-10T13:53:16;99733.00;;;17.90
75822;BMP180;64454;51.984;9.838;2023-05-10T13:55:43;99730.00;;;18.30
75822;BMP180;64454;51.984;9.838;2023-05-10T13:58:11;99722.00;;;18.40
75822;BMP180;64454;51.984;9.838;2023-05-10T14:00:38;99720.00;;;18.80
75822;BMP180;64454;51.984;9.838;2023-05-10T14:03:05;99721.00;;;19.00
75822;BMP180;64454;51.984;9.838;2023-05-10T14:05:34;99716.00;;;19.10
75822;BMP180;64454;51.984;9.838;2023-05-10T14:08:01;99716.00;;;19.50
75822;BMP180;64454;51.984;9.838;2023-05-10T14:10:29;99722.00;;;18.50
75822;BMP180;64454;51.984;9.838;2023-05-10T14:12:56;99720.00;;;18.50
75822;BMP180;64454;51.984;9.838;2023-05-10T14:15:24;99720.00;;;19.00
75822;BMP180;64454;51.984;9.838;2023-05-10T14:17:51;99713.00;;;19.10
75822;BMP180;64454;51.984;9.838;2023-05-10T14:20:18;99713.00;;;18.50
75822;BMP180;64454;51.984;9.838;2023-05-10T14:22:45;99713.00;;;18.50